Ebeye, MH

1:36 PM MHT on December 10, 2016 (GMT +1200)
Wake Island Army Air Field | | Change Station

Elev 13 ft 19.28 °N, 166.64 °E | Updated 38 minutes ago

Partly Cloudy
Partly Cloudy
84 °F
Feels Like 89 °F
N
15
Wind Variable Wind from ENE

Today
High -- | Low -- °F
--% Chance of Precip.
Yesterday
High -- | Low -- °F
Precip. -- in
Pressure 29.91 in
Visibility 6.2 miles
Clouds Few 2300 ft
Scattered Clouds 4300 ft
Heat Index 89 °F
Dew Point 72 °F
Humidity 69%
Rainfall 0.00 in
Snow Depth Not available.
6:53 AM 6:30 PM
Waxing Gibbous, 79% visible
METAR PWAK 100058Z AUTO 07013KT 9999 FEW023 SCT043 29/23 A2989 RMK AO2 SLP128 T02860225 TSNO $
Pressure 29.91 in
Visibility 6.2 miles
Clouds Few 2300 ft
Scattered Clouds 4300 ft
Heat Index 89 °F
Dew Point 72 °F
Humidity 69%
Rainfall 0.00 in
Snow Depth Not available.
6:53 AM 6:30 PM
Waxing Gibbous, 79% visible
METAR PWAK 100058Z AUTO 07013KT 9999 FEW023 SCT043 29/23 A2989 RMK AO2 SLP128 T02860225 TSNO $

10-Day Weather Forecast

No radar image for this location.
×

Almanac

Astronomy

Dec. 10, 2016 Rise Set
Actual Time
Civil Twilight
Nautical Twilight
Astronomical Twilight
Moon
Length of Visible Light
Length of Day
Tomorrow will be .
, % of the Moon is Illuminated

Today's Extremes

State Highs State Lows

Community

WunderPhotos

Upload Photos

1,956,534 photos uploaded!

WunderBlog® & News

Nearby

Air Quality

  Air Quality AQ Index Pollutant
Not available.

Snow Depth

Station Depth Elevation

Earthquake Activity

City Distance Mag. Time & Date
Minimum magnitude displayed is 2.5.

Coastal Water Temperatures

Place Temperature

Stations

Nearby Weather Stations

Station Location Temp. Windchill Dew Point Humidity Wind Precip. Elev Updated Type
                   

Watches & Warnings

There are currently no watches in effect.